Terminal Aerodrome Forecast
Issued by NWS

Home | Current Version | Previous Version | Graphics & Text | Print | Product List | Glossary On
Versions: 1 2 3 4 5 6 7 8 9 10 11 12 13 14 15 16 17 18
672
FTUS41 KCLE 140542
TAFFDY
TAF
KFDY 140542Z 1406/1506 32014G22KT P6SM VCSH SCT008 OVC015
      TEMPO 1406/1407 3SM -SN OVC008
     FM140800 33012G20KT P6SM SCT015 OVC025
     FM141200 33010KT P6SM SCT015 OVC035
     FM141900 31005KT P6SM SCT035=

USA.gov is the U.S. government's official web portal to all federal, state and local government web resources and services.